createdAt,value
2018-12-14T00:02:37.357Z,27.03
2018-12-14T00:07:36.432Z,30.17
2018-12-14T00:12:31.158Z,31.37
2018-12-14T00:17:25.761Z,30.93
2018-12-14T00:22:20.382Z,34.40
2018-12-14T00:27:15.359Z,32.90
2018-12-14T00:32:10.139Z,33.43
2018-12-14T00:37:05.327Z,31.17
2018-12-14T00:42:00.201Z,34.70
2018-12-14T00:46:54.745Z,33.47
2018-12-14T00:51:49.354Z,31.73
2018-12-14T00:56:44.126Z,38.63
2018-12-14T01:01:38.686Z,42.67
2018-12-14T01:06:33.407Z,35.30
2018-12-14T01:11:28.873Z,37.87
2018-12-14T01:16:27.073Z,40.03
2018-12-14T01:21:38.120Z,37.43
2018-12-14T01:26:32.604Z,34.87
2018-12-14T01:31:27.298Z,36.03
2018-12-14T01:36:21.808Z,36.80
2018-12-14T01:41:16.326Z,39.03
2018-12-14T01:46:10.926Z,37.33
2018-12-14T01:51:05.462Z,34.13
2018-12-14T01:55:59.936Z,35.47
2018-12-14T02:00:54.409Z,35.10
2018-12-14T02:05:48.886Z,34.00
2018-12-14T02:10:43.354Z,34.43
2018-12-14T02:15:37.981Z,30.77
2018-12-14T02:20:32.442Z,33.93
2018-12-14T02:25:26.911Z,33.43
2018-12-14T02:30:32.431Z,31.77
2018-12-14T02:35:26.924Z,35.17
2018-12-14T02:40:21.390Z,33.03
2018-12-14T02:45:15.888Z,33.37
2018-12-14T02:50:10.439Z,33.83
2018-12-14T02:55:05.257Z,36.97
2018-12-14T02:59:59.642Z,31.43
2018-12-14T03:04:54.055Z,32.07
2018-12-14T03:09:48.503Z,35.97
2018-12-14T03:14:42.929Z,32.57
2018-12-14T03:19:37.371Z,34.33
2018-12-14T03:24:31.770Z,34.37
2018-12-14T03:29:26.167Z,36.10
2018-12-14T03:34:20.579Z,33.47
2018-12-14T03:39:14.941Z,35.70
2018-12-14T03:44:09.373Z,37.20
2018-12-14T03:49:03.754Z,32.23
2018-12-14T03:53:58.175Z,36.93
2018-12-14T03:58:52.679Z,36.10
2018-12-14T04:03:47.091Z,35.13
2018-12-14T04:08:41.485Z,32.20
2018-12-14T04:13:35.916Z,35.73
2018-12-14T04:18:30.373Z,34.37
2018-12-14T04:23:24.780Z,34.87
2018-12-14T04:28:19.705Z,30.97
2018-12-14T04:33:14.572Z,37.27
2018-12-14T04:38:09.015Z,35.93
2018-12-14T04:43:03.475Z,37.57
2018-12-14T04:47:57.885Z,32.53
2018-12-14T04:52:52.802Z,34.47
2018-12-14T04:57:48.168Z,36.43
2018-12-14T05:02:42.682Z,32.57
2018-12-14T05:07:37.113Z,33.63
2018-12-14T05:12:31.574Z,30.97
2018-12-14T05:17:26.266Z,33.77
2018-12-14T05:22:20.730Z,32.53
2018-12-14T05:27:15.223Z,36.70
2018-12-14T05:32:09.616Z,36.87
2018-12-14T05:37:04.406Z,34.53
2018-12-14T05:41:58.812Z,37.40
2018-12-14T05:46:53.290Z,37.77
2018-12-14T05:51:47.680Z,35.50
2018-12-14T05:56:42.127Z,33.37
2018-12-14T06:01:36.617Z,34.17
2018-12-14T06:06:31.032Z,33.10
2018-12-14T06:11:25.456Z,33.83
2018-12-14T06:16:19.880Z,34.93
2018-12-14T06:21:14.250Z,33.37
2018-12-14T06:26:08.729Z,35.63
2018-12-14T06:31:03.356Z,33.63
2018-12-14T06:35:57.884Z,34.67
2018-12-14T06:40:52.297Z,34.50
2018-12-14T06:45:46.744Z,31.37
2018-12-14T06:50:41.247Z,36.80
2018-12-14T06:55:35.684Z,42.47
2018-12-14T07:00:30.095Z,36.60
2018-12-14T07:05:24.520Z,38.30
2018-12-14T07:10:19.073Z,39.70
2018-12-14T07:15:13.529Z,41.37
2018-12-14T07:20:07.964Z,40.67
2018-12-14T07:25:02.389Z,38.73
2018-12-14T07:29:56.808Z,39.93
2018-12-14T07:34:51.264Z,44.97
2018-12-14T07:39:45.700Z,42.60
2018-12-14T07:44:40.321Z,43.83
2018-12-14T07:49:34.968Z,42.27
2018-12-14T07:54:30.520Z,41.40
2018-12-14T07:59:25.050Z,41.40
2018-12-14T08:04:19.630Z,44.07
2018-12-14T08:09:14.064Z,41.90
2018-12-14T08:14:08.572Z,45.17
2018-12-14T08:19:03.056Z,45.67
2018-12-14T08:23:57.577Z,40.53
2018-12-14T08:28:52.085Z,39.13
2018-12-14T08:33:46.491Z,41.57
2018-12-14T08:38:40.895Z,38.00
2018-12-14T08:43:41.196Z,43.57
2018-12-14T08:48:31.743Z,37.87
2018-12-14T08:53:26.446Z,35.20
2018-12-14T08:58:20.838Z,42.40
2018-12-14T09:03:15.245Z,39.87
2018-12-14T09:08:09.645Z,35.07
2018-12-14T09:13:04.079Z,36.40
2018-12-14T09:17:58.557Z,33.90
2018-12-14T09:22:53.323Z,37.07
2018-12-14T09:27:47.765Z,36.60
2018-12-14T09:32:42.178Z,36.07
2018-12-14T09:37:36.663Z,35.80
2018-12-14T09:42:31.077Z,42.67
2018-12-14T09:47:25.488Z,33.63
2018-12-14T09:52:19.949Z,31.07
2018-12-14T09:57:14.724Z,31.23
2018-12-14T10:02:09.195Z,38.57
2018-12-14T10:07:03.589Z,35.93
2018-12-14T10:11:58.193Z,33.03
2018-12-14T10:16:52.592Z,29.70
2018-12-14T10:21:47.014Z,30.07
2018-12-14T10:26:41.446Z,31.83
2018-12-14T10:31:36.797Z,28.83
2018-12-14T10:36:31.212Z,26.87
2018-12-14T10:41:25.610Z,29.87
2018-12-14T10:46:20.032Z,27.50
2018-12-14T10:51:14.430Z,25.73
2018-12-14T10:56:08.901Z,26.80
2018-12-14T11:01:14.267Z,24.83
2018-12-14T11:06:06.372Z,30.83
2018-12-14T11:11:01.074Z,27.43
2018-12-14T11:15:55.448Z,29.67
2018-12-14T11:20:49.915Z,27.10
2018-12-14T11:25:45.408Z,31.47
2018-12-14T11:30:42.011Z,29.23
2018-12-14T11:35:44.357Z,31.17
2018-12-14T11:40:42.098Z,29.27
2018-12-14T11:45:36.814Z,28.03
2018-12-14T11:50:32.943Z,28.13
2018-12-14T11:55:28.218Z,26.60
2018-12-14T12:00:24.325Z,26.60
2018-12-14T12:05:22.303Z,28.20
2018-12-14T12:10:16.870Z,24.13
2018-12-14T12:15:21.451Z,22.03
2018-12-14T12:20:18.620Z,23.00
2018-12-14T12:25:15.425Z,23.03
2018-12-14T12:30:10.445Z,21.83
2018-12-14T12:35:06.402Z,20.47
2018-12-14T12:40:00.833Z,18.57
2018-12-14T12:44:55.236Z,20.30
2018-12-14T12:49:49.651Z,19.70
2018-12-14T12:54:44.312Z,16.47
2018-12-14T12:59:38.848Z,19.30
2018-12-14T13:04:37.138Z,23.43
2018-12-14T13:09:31.584Z,24.60
2018-12-14T13:14:26.019Z,23.03
2018-12-14T13:19:20.831Z,23.13
2018-12-14T13:24:15.841Z,25.80
2018-12-14T13:29:10.356Z,27.53
2018-12-14T13:34:04.775Z,40.37
2018-12-14T13:38:59.201Z,26.47
2018-12-14T13:43:53.622Z,25.73
2018-12-14T13:48:48.052Z,27.80
2018-12-14T13:53:42.581Z,22.17
2018-12-14T13:58:36.991Z,21.37
2018-12-14T14:03:31.413Z,23.00
2018-12-14T14:08:25.828Z,25.40
2018-12-14T14:13:20.300Z,25.17
2018-12-14T14:18:14.725Z,25.20
2018-12-14T14:23:09.162Z,28.83
2018-12-14T14:28:05.289Z,25.60
2018-12-14T14:32:59.720Z,28.63
2018-12-14T14:37:57.417Z,27.80
2018-12-14T14:42:50.742Z,28.80
2018-12-14T14:47:45.187Z,27.27
2018-12-14T14:52:39.992Z,31.67
2018-12-14T14:57:35.075Z,28.63
2018-12-14T15:02:29.496Z,36.00
2018-12-14T15:07:23.956Z,30.93
2018-12-14T15:12:18.401Z,28.20
2018-12-14T15:17:13.446Z,26.57
2018-12-14T15:22:07.899Z,30.63
2018-12-14T15:27:02.409Z,30.27
2018-12-14T15:31:57.300Z,34.73
2018-12-14T15:36:51.718Z,29.83
2018-12-14T15:41:46.149Z,26.17
2018-12-14T15:46:40.593Z,26.17
2018-12-14T15:51:35.001Z,28.73
2018-12-14T15:56:29.457Z,32.27
2018-12-14T16:01:24.300Z,27.43
2018-12-14T16:06:18.773Z,28.40
2018-12-14T16:11:13.162Z,28.30
2018-12-14T16:16:07.643Z,26.87
2018-12-14T16:21:02.263Z,25.27
2018-12-14T16:25:56.676Z,28.03
2018-12-14T16:30:51.097Z,25.77
2018-12-14T16:35:45.505Z,29.27
2018-12-14T16:40:39.899Z,25.23
2018-12-14T16:45:34.276Z,30.23
2018-12-14T16:50:28.665Z,30.30
2018-12-14T16:55:23.074Z,26.73
2018-12-14T17:00:17.449Z,34.50
2018-12-14T17:05:11.864Z,35.50
2018-12-14T17:10:06.770Z,34.00
2018-12-14T17:15:01.202Z,32.87
2018-12-14T17:19:55.952Z,32.97
2018-12-14T17:24:50.399Z,31.53
2018-12-14T17:29:45.665Z,33.20
2018-12-14T17:34:40.481Z,36.20
2018-12-14T17:39:37.037Z,39.37
2018-12-14T17:44:33.497Z,37.17
2018-12-14T17:49:27.937Z,37.60
2018-12-14T17:54:22.748Z,38.60
2018-12-14T17:59:20.287Z,36.03
2018-12-14T18:04:16.021Z,35.50
2018-12-14T18:09:10.659Z,35.47
2018-12-14T18:14:05.211Z,31.57
2018-12-14T18:18:59.762Z,28.33
2018-12-14T18:23:54.138Z,30.20
2018-12-14T18:28:48.640Z,25.63
2018-12-14T18:33:43.147Z,26.93
2018-12-14T18:38:37.707Z,27.10
2018-12-14T18:43:32.207Z,29.10
2018-12-14T18:48:28.014Z,28.40
2018-12-14T18:53:22.802Z,26.07
2018-12-14T18:58:17.223Z,28.43
2018-12-14T19:03:11.628Z,27.37
2018-12-14T19:08:06.153Z,26.07
2018-12-14T19:13:00.670Z,26.47
2018-12-14T19:17:55.797Z,25.70
2018-12-14T19:22:50.190Z,26.60
2018-12-14T19:27:44.606Z,27.27
2018-12-14T19:32:39.349Z,26.13
2018-12-14T19:37:33.809Z,29.20
2018-12-14T19:42:28.525Z,27.40
2018-12-14T19:47:24.987Z,32.37
2018-12-14T19:52:19.877Z,29.10
2018-12-14T19:57:14.351Z,28.70
2018-12-14T20:02:08.869Z,27.00
2018-12-14T20:07:08.963Z,29.73
2018-12-14T20:12:08.494Z,28.13
2018-12-14T20:17:09.636Z,25.57
2018-12-14T20:22:09.095Z,26.03
2018-12-14T20:27:04.776Z,23.77
2018-12-14T20:31:59.615Z,25.87
2018-12-14T20:36:54.068Z,24.67
2018-12-14T20:41:48.485Z,24.40
2018-12-14T20:46:43.025Z,31.10
2018-12-14T20:51:38.158Z,31.97
2018-12-14T20:56:33.032Z,29.70
2018-12-14T21:01:27.826Z,31.60
2018-12-14T21:06:23.349Z,29.43
2018-12-14T21:11:17.989Z,26.13
2018-12-14T21:16:13.052Z,24.80
2018-12-14T21:21:07.788Z,23.67
2018-12-14T21:26:02.498Z,26.97
2018-12-14T21:30:57.129Z,28.87
2018-12-14T21:35:51.733Z,32.63
2018-12-14T21:40:46.519Z,33.17
2018-12-14T21:45:41.236Z,48.03
2018-12-14T21:50:36.531Z,60.17
2018-12-14T21:55:31.259Z,37.40
2018-12-14T22:00:29.857Z,38.63
2018-12-14T22:05:24.456Z,33.60
2018-12-14T22:10:19.285Z,33.07
2018-12-14T22:15:14.295Z,33.27
2018-12-14T22:20:09.027Z,34.03
2018-12-14T22:25:03.937Z,31.20
2018-12-14T22:29:58.753Z,34.37
2018-12-14T22:34:53.305Z,33.80
2018-12-14T22:39:51.421Z,32.10
2018-12-14T22:44:46.747Z,30.57
2018-12-14T22:49:41.543Z,29.63
2018-12-14T22:54:37.520Z,32.10
2018-12-14T22:59:32.309Z,34.00
2018-12-14T23:04:27.030Z,32.40
2018-12-14T23:09:21.735Z,36.93
2018-12-14T23:14:16.430Z,32.13
2018-12-14T23:19:11.243Z,29.93
2018-12-14T23:24:05.856Z,34.47
2018-12-14T23:29:00.740Z,33.07
2018-12-14T23:33:55.401Z,31.67
2018-12-14T23:38:50.251Z,36.90
2018-12-14T23:43:45.290Z,34.90
2018-12-14T23:48:40.544Z,34.90
2018-12-14T23:53:35.055Z,35.13
2018-12-14T23:58:29.514Z,33.07
